Time;durP1;ratioP1;P1;durP2;ratioP2;P2;SDS_P1;SDS_P2;PMS_P1;PMS_P2;Temp;Humidity;BMP_temperature;BMP_pressure;BME280_temperature;BME280_humidity;BME280_pressure;Samples;Min_cycle;Max_cycle;Signal;HPM_P1;HPM_P2
2023/01/22 00:00:25;;;;;;;;;;;;;;;-1.40;95.05;103329.53;4982074;28;20002;-60
2023/01/22 00:02:50;;;;;;;;;;;;;;;-1.38;95.17;103338.16;4991181;28;19965;-60
2023/01/22 00:05:15;;;;;;;;;;;;;;;-1.39;95.21;103342.50;4987288;28;20565;-60
2023/01/22 00:07:42;;;;;;;;;;;;;;;-1.37;95.28;103345.09;4991051;28;21399;-60
2023/01/22 00:10:08;;;;;;;;;;;;;;;-1.36;95.39;103346.81;4995582;28;19929;-60
2023/01/22 00:12:33;;;;;;;;;;;;;;;-1.35;95.18;103338.09;4984142;28;19917;-60
2023/01/22 00:14:59;;;;;;;;;;;;;;;-1.35;95.42;103345.91;4983450;28;19945;-60
2023/01/22 00:17:24;;;;;;;;;;;;;;;-1.36;95.32;103346.81;4998916;28;19920;-60
2023/01/22 00:19:49;;;;;;;;;;;;;;;-1.39;95.30;103341.66;4986553;28;19914;-60
2023/01/22 00:22:14;;;;;;;;;;;;;;;-1.41;95.40;103340.84;4980707;28;20408;-60
2023/01/22 00:24:39;;;;;;;;;;;;;;;-1.43;95.50;103342.63;4987870;28;19924;-60
2023/01/22 00:27:05;;;;;;;;;;;;;;;-1.44;95.24;103335.69;4980338;28;19918;-60
2023/01/22 00:29:30;;;;;;;;;;;;;;;-1.46;95.42;103340.03;4984424;28;19929;-60
2023/01/22 00:31:55;;;;;;;;;;;;;;;-1.47;95.39;103335.72;4982336;28;20013;-60
2023/01/22 00:34:20;;;;;;;;;;;;;;;-1.47;95.32;103333.13;4987705;28;19917;-60
2023/01/22 00:36:45;;;;;;;;;;;;;;;-1.48;95.34;103329.66;4987579;28;20013;-60
2023/01/22 00:39:10;;;;;;;;;;;;;;;-1.49;95.35;103327.06;4982249;28;19922;-60
2023/01/22 00:41:36;;;;;;;;;;;;;;;-1.51;95.30;103326.25;4983408;28;19957;-60
2023/01/22 00:44:01;;;;;;;;;;;;;;;-1.52;95.22;103324.53;4990130;28;20374;-60
2023/01/22 00:46:26;;;;;;;;;;;;;;;-1.54;95.27;103318.50;4994180;28;19963;-60
2023/01/22 00:48:51;;;;;;;;;;;;;;;-1.54;95.25;103323.72;4991211;28;19934;-60
2023/01/22 00:51:17;;;;;;;;;;;;;;;-1.56;95.24;103323.75;4987679;28;19917;-60
2023/01/22 00:53:42;;;;;;;;;;;;;;;-1.58;95.25;103326.38;4994477;28;19947;-60
2023/01/22 00:56:08;;;;;;;;;;;;;;;-1.57;95.23;103319.44;4980294;28;19977;-60
2023/01/22 00:58:33;;;;;;;;;;;;;;;-1.58;95.18;103315.97;4982835;28;19918;-60
2023/01/22 01:01:01;;;;;;;;;;;;;;;-1.57;95.29;103317.69;4980188;28;20354;-59
2023/01/22 01:03:26;;;;;;;;;;;;;;;-1.57;95.17;103311.63;4984283;28;19922;-61
2023/01/22 01:06:02;;;;;;;;;;;;;;;-1.57;95.28;103316.81;4997976;28;19947;-60
2023/01/22 01:08:28;;;;;;;;;;;;;;;-1.57;95.25;103319.44;4987314;28;19918;-60
2023/01/22 01:10:57;;;;;;;;;;;;;;;-1.58;95.30;103312.50;4991892;28;19921;-60
2023/01/22 01:13:22;;;;;;;;;;;;;;;-1.59;95.26;103309.03;4982847;28;19925;-60
2023/01/22 01:15:48;;;;;;;;;;;;;;;-1.58;95.33;103307.28;4983714;28;19918;-60
2023/01/22 01:18:13;;;;;;;;;;;;;;;-1.59;95.20;103298.63;4984512;28;20370;-60
2023/01/22 01:20:39;;;;;;;;;;;;;;;-1.60;95.31;103296.06;4987166;28;20374;-60
2023/01/22 01:23:04;;;;;;;;;;;;;;;-1.62;95.21;103296.09;4988196;28;19968;-60
2023/01/22 01:25:29;;;;;;;;;;;;;;;-1.64;95.21;103297.00;4980807;28;20017;-60
2023/01/22 01:27:54;;;;;;;;;;;;;;;-1.67;95.32;103292.72;4981617;28;21545;-60
2023/01/22 01:30:20;;;;;;;;;;;;;;;-1.69;95.15;103291.91;4980671;28;19925;-60
2023/01/22 01:32:45;;;;;;;;;;;;;;;-1.69;95.28;103291.91;4986490;28;19924;-60
2023/01/22 01:35:10;;;;;;;;;;;;;;;-1.68;95.23;103298.81;4982150;28;19925;-60
2023/01/22 01:37:35;;;;;;;;;;;;;;;-1.68;95.27;103296.22;4991596;28;19918;-60
2023/01/22 01:40:00;;;;;;;;;;;;;;;-1.69;95.25;103288.44;4983875;28;19924;-60
2023/01/22 01:42:29;;;;;;;;;;;;;;;-1.68;95.29;103280.59;4994138;28;19918;-60
2023/01/22 01:45:13;;;;;;;;;;;;;;;-1.68;95.24;103274.53;4985040;28;19937;-60
2023/01/22 01:47:39;;;;;;;;;;;;;;;-1.70;95.20;103274.56;4986073;28;19926;-60
2023/01/22 01:50:04;;;;;;;;;;;;;;;-1.69;95.41;103284.09;4983807;28;19948;-60
2023/01/22 01:52:29;;;;;;;;;;;;;;;-1.69;95.43;103276.25;4992679;28;19934;-59
2023/01/22 01:54:56;;;;;;;;;;;;;;;-1.68;95.34;103277.13;4998090;28;21242;-60
2023/01/22 01:57:24;;;;;;;;;;;;;;;-1.67;95.48;103266.66;4994886;28;19992;-60
2023/01/22 01:59:50;;;;;;;;;;;;;;;-1.66;95.48;103263.19;4992391;28;19918;-60
2023/01/22 02:02:15;;;;;;;;;;;;;;;-1.67;95.48;103264.06;4989502;28;19925;-60
2023/01/22 02:04:41;;;;;;;;;;;;;;;-1.66;95.47;103254.50;4992042;28;19999;-60
2023/01/22 02:07:06;;;;;;;;;;;;;;;-1.67;95.52;103264.06;4989456;28;20362;-59
2023/01/22 02:09:31;;;;;;;;;;;;;;;-1.68;95.54;103258.88;4987281;28;19922;-60
2023/01/22 02:11:56;;;;;;;;;;;;;;;-1.70;95.44;103269.34;4995942;28;19928;-60
2023/01/22 02:14:25;;;;;;;;;;;;;;;-1.69;95.48;103259.78;4992920;28;19918;-60
2023/01/22 02:17:13;;;;;;;;;;;;;;;-1.69;95.48;103255.44;4992517;28;19918;-59
2023/01/22 02:19:39;;;;;;;;;;;;;;;-1.68;95.58;103248.47;4996319;28;19917;-60
2023/01/22 02:22:16;;;;;;;;;;;;;;;-1.69;95.60;103241.53;4995063;28;19913;-60
2023/01/22 02:24:42;;;;;;;;;;;;;;;-1.70;95.63;103243.28;4987026;28;19925;-60
2023/01/22 02:27:07;;;;;;;;;;;;;;;-1.70;95.68;103237.22;4986943;28;19914;-60
2023/01/22 02:29:32;;;;;;;;;;;;;;;-1.72;95.63;103239.88;4994258;28;19922;-59
2023/01/22 02:31:57;;;;;;;;;;;;;;;-1.71;95.58;103240.72;4988380;28;20693;-60
2023/01/22 02:34:23;;;;;;;;;;;;;;;-1.71;95.49;103238.13;4988281;28;19913;-60
2023/01/22 02:36:49;;;;;;;;;;;;;;;-1.72;95.76;103250.28;4990541;28;19926;-59
2023/01/22 02:39:14;;;;;;;;;;;;;;;-1.70;95.75;103248.50;4983757;28;19929;-59
2023/01/22 02:41:40;;;;;;;;;;;;;;;-1.68;95.83;103246.72;4981582;28;19946;-60
2023/01/22 02:44:06;;;;;;;;;;;;;;;-1.68;95.86;103249.31;4986807;28;19920;-60
2023/01/22 02:46:31;;;;;;;;;;;;;;;-1.67;95.89;103248.44;4986730;28;19968;-59
2023/01/22 02:48:56;;;;;;;;;;;;;;;-1.66;95.94;103242.34;4989536;28;19917;-60
2023/01/22 02:51:22;;;;;;;;;;;;;;;-1.65;95.85;103246.66;4990450;28;19917;-60
2023/01/22 02:53:47;;;;;;;;;;;;;;;-1.64;95.68;103244.91;4990002;28;20341;-59
2023/01/22 02:56:12;;;;;;;;;;;;;;;-1.63;95.89;103238.81;4994411;28;19928;-60
2023/01/22 02:58:37;;;;;;;;;;;;;;;-1.64;95.84;103240.56;4990147;28;19913;-60
2023/01/22 03:01:06;;;;;;;;;;;;;;;-1.63;95.87;103247.47;4986947;28;20352;-59
2023/01/22 03:03:31;;;;;;;;;;;;;;;-1.62;95.90;103249.19;4994863;28;19946;-60
2023/01/22 03:05:56;;;;;;;;;;;;;;;-1.62;95.84;103240.53;4985861;28;20281;-60
2023/01/22 03:08:25;;;;;;;;;;;;;;;-1.61;95.87;103244.84;4978036;28;19924;-60
2023/01/22 03:10:56;;;;;;;;;;;;;;;-1.61;95.86;103240.47;4986658;28;19929;-60
2023/01/22 03:21:32;;;;;;;;;;;;;;;-1.48;96.02;103248.88;4997049;28;20384;-59
2023/01/22 03:23:57;;;;;;;;;;;;;;;-1.44;96.08;103244.47;4989244;28;19926;-60
2023/01/22 03:26:23;;;;;;;;;;;;;;;-1.41;96.10;103247.88;4987209;28;19932;-60
2023/01/22 03:28:48;;;;;;;;;;;;;;;-1.38;96.12;103245.19;4990111;28;20021;-60
2023/01/22 03:31:14;;;;;;;;;;;;;;;-1.35;96.09;103234.69;4989272;28;19924;-60
2023/01/22 03:33:39;;;;;;;;;;;;;;;-1.31;96.29;103240.69;4990962;28;19937;-60
2023/01/22 03:36:06;;;;;;;;;;;;;;;-1.29;96.29;103242.38;4991583;28;20430;-60
2023/01/22 03:38:31;;;;;;;;;;;;;;;-1.26;96.19;103238.84;4984477;28;19922;-59
2023/01/22 03:41:00;;;;;;;;;;;;;;;-1.25;96.24;103236.19;4987279;28;20474;-60
2023/01/22 03:43:25;;;;;;;;;;;;;;;-1.22;96.29;103235.25;4987090;28;19928;-60
2023/01/22 03:45:50;;;;;;;;;;;;;;;-1.18;96.36;103236.88;4985285;28;20008;-59
2023/01/22 03:48:15;;;;;;;;;;;;;;;-1.17;96.30;103233.41;4987814;28;20369;-59
2023/01/22 03:50:41;;;;;;;;;;;;;;;-1.14;96.31;103230.75;4983356;28;20576;-60
2023/01/22 03:53:06;;;;;;;;;;;;;;;-1.13;96.37;103224.63;4992490;28;19917;-60
2023/01/22 03:55:31;;;;;;;;;;;;;;;-1.11;96.35;103222.00;4980077;28;20012;-59
2023/01/22 03:57:56;;;;;;;;;;;;;;;-1.11;96.30;103224.59;4995936;28;20419;-60
2023/01/22 04:00:21;;;;;;;;;;;;;;;-1.13;96.29;103214.19;4988836;28;19957;-59
2023/01/22 04:02:48;;;;;;;;;;;;;;;-1.14;96.28;103222.91;4992780;28;19953;-60
2023/01/22 04:05:13;;;;;;;;;;;;;;;-1.16;96.33;103213.41;4986597;28;19918;-59
2023/01/22 04:07:38;;;;;;;;;;;;;;;-1.17;96.27;103222.09;4979508;28;20293;-59
2023/01/22 04:10:03;;;;;;;;;;;;;;;-1.19;96.36;103224.75;4984735;28;19921;-60
2023/01/22 04:12:29;;;;;;;;;;;;;;;-1.19;96.20;103222.16;4988055;28;20392;-60
2023/01/22 04:14:54;;;;;;;;;;;;;;;-1.19;96.32;103223.91;4982443;28;19952;-60
2023/01/22 04:17:19;;;;;;;;;;;;;;;-1.16;96.23;103219.47;4987967;28;19941;-60
2023/01/22 04:19:44;;;;;;;;;;;;;;;-1.16;96.27;103224.69;4987194;28;19925;-60
2023/01/22 04:22:09;;;;;;;;;;;;;;;-1.13;96.33;103216.81;4985616;28;19917;-60
2023/01/22 04:24:35;;;;;;;;;;;;;;;-1.13;96.37;103209.00;4984749;28;19918;-60
2023/01/22 04:27:00;;;;;;;;;;;;;;;-1.10;96.43;103200.22;4987140;28;19918;-60
2023/01/22 04:29:25;;;;;;;;;;;;;;;-1.08;96.57;103212.34;4979980;28;20430;-60
2023/01/22 04:31:50;;;;;;;;;;;;;;;-1.06;96.62;103217.50;4989870;28;20300;-60
2023/01/22 04:34:16;;;;;;;;;;;;;;;-1.04;96.70;103218.34;4991554;28;20021;-60
2023/01/22 04:36:41;;;;;;;;;;;;;;;-1.03;96.84;103217.44;4985917;28;20353;-60
2023/01/22 04:39:06;;;;;;;;;;;;;;;-1.01;97.00;103215.63;4999783;28;19914;-60
2023/01/22 04:41:31;;;;;;;;;;;;;;;-1.00;96.90;103217.34;4981233;28;19975;-60
2023/01/22 04:43:56;;;;;;;;;;;;;;;-0.98;97.01;103220.78;4983164;28;19918;-60
2023/01/22 04:46:21;;;;;;;;;;;;;;;-0.97;97.03;103219.88;4984370;28;19953;-60
2023/01/22 04:48:47;;;;;;;;;;;;;;;-0.95;97.04;103224.16;4994386;28;19921;-60
2023/01/22 04:51:12;;;;;;;;;;;;;;;-0.93;97.00;103213.69;4988602;28;19913;-60
2023/01/22 04:53:37;;;;;;;;;;;;;;;-0.92;97.07;103207.59;4985506;28;19915;-60
2023/01/22 04:56:02;;;;;;;;;;;;;;;-0.89;97.13;103206.66;4987536;28;19980;-60
2023/01/22 04:58:27;;;;;;;;;;;;;;;-0.89;97.06;103207.50;4986013;28;20044;-60
2023/01/22 05:00:54;;;;;;;;;;;;;;;-0.89;97.13;103199.69;4998145;28;19918;-60
2023/01/22 05:03:19;;;;;;;;;;;;;;;-0.89;97.21;103207.50;4985551;28;20417;-60
2023/01/22 05:05:44;;;;;;;;;;;;;;;-0.89;97.14;103199.69;4993567;28;20393;-60
2023/01/22 05:08:09;;;;;;;;;;;;;;;-0.88;97.17;103203.13;4993509;28;19963;-60
2023/01/22 05:10:34;;;;;;;;;;;;;;;-0.88;97.10;103204.00;4989006;28;20382;-60
2023/01/22 05:13:03;;;;;;;;;;;;;;;-0.89;97.20;103204.91;4984440;28;19925;-60
2023/01/22 05:15:29;;;;;;;;;;;;;;;-0.89;97.17;103207.50;4988492;28;19929;-60
2023/01/22 05:17:54;;;;;;;;;;;;;;;-0.90;97.15;103205.78;4995184;28;19922;-59
2023/01/22 05:20:20;;;;;;;;;;;;;;;-0.89;97.10;103206.66;4990937;28;19918;-60
2023/01/22 05:22:45;;;;;;;;;;;;;;;-0.89;97.04;103207.50;5003338;28;20292;-60
2023/01/22 05:25:10;;;;;;;;;;;;;;;-0.88;96.99;103208.34;4996590;28;19985;-60
2023/01/22 05:27:35;;;;;;;;;;;;;;;-0.87;96.94;103218.75;4992263;28;21736;-60
2023/01/22 05:30:01;;;;;;;;;;;;;;;-0.85;97.04;103216.13;4988323;28;20393;-60
2023/01/22 05:32:26;;;;;;;;;;;;;;;-0.84;97.03;103217.84;4989868;28;20506;-60
2023/01/22 05:34:51;;;;;;;;;;;;;;;-0.83;96.99;103219.56;4988286;28;19917;-60
2023/01/22 05:37:16;;;;;;;;;;;;;;;-0.83;97.10;103227.38;4991842;28;20472;-60
2023/01/22 05:39:42;;;;;;;;;;;;;;;-0.81;97.07;103220.38;4984004;28;19922;-61
2023/01/22 05:42:09;;;;;;;;;;;;;;;-0.81;96.93;103222.97;4983905;28;19918;-60
2023/01/22 05:44:34;;;;;;;;;;;;;;;-0.81;96.89;103220.38;4988537;28;20012;-60
2023/01/22 05:47:00;;;;;;;;;;;;;;;-0.82;96.88;103216.91;4990220;28;20008;-60
2023/01/22 05:49:25;;;;;;;;;;;;;;;-0.80;96.88;103229.91;4988248;28;19933;-60
2023/01/22 05:51:50;;;;;;;;;;;;;;;-0.81;96.70;103228.19;4982870;28;19958;-59
2023/01/22 05:54:15;;;;;;;;;;;;;;;-0.80;96.93;103237.75;4990528;28;20392;-60
2023/01/22 05:56:40;;;;;;;;;;;;;;;-0.79;96.86;103236.84;4987504;28;19918;-60
2023/01/22 05:59:06;;;;;;;;;;;;;;;-0.81;96.89;103236.88;4993564;28;20432;-60
2023/01/22 06:01:31;;;;;;;;;;;;;;;-0.81;96.80;103236.88;4982267;28;19972;-60
2023/01/22 06:03:56;;;;;;;;;;;;;;;-0.82;96.87;103237.78;4984757;28;20365;-59
2023/01/22 06:06:21;;;;;;;;;;;;;;;-0.82;96.91;103236.91;4987200;28;19918;-59
2023/01/22 06:08:47;;;;;;;;;;;;;;;-0.82;96.84;103236.91;4993348;28;19965;-59
2023/01/22 06:11:13;;;;;;;;;;;;;;;-0.81;96.91;103244.72;4998221;28;20456;-60
2023/01/22 06:13:39;;;;;;;;;;;;;;;-0.81;96.90;103236.03;4992254;28;19918;-60
2023/01/22 06:16:04;;;;;;;;;;;;;;;-0.78;96.84;103235.94;4994133;28;19965;-59
2023/01/22 06:18:29;;;;;;;;;;;;;;;-0.78;96.94;103231.59;4987173;28;20340;-59
2023/01/22 06:20:58;;;;;;;;;;;;;;;-0.77;96.88;103242.88;4987073;28;19924;-60
2023/01/22 06:23:25;;;;;;;;;;;;;;;-0.78;96.98;103244.63;4990484;28;20413;-60
2023/01/22 06:25:52;;;;;;;;;;;;;;;-0.77;96.88;103248.09;4986204;28;20052;-60
2023/01/22 06:28:17;;;;;;;;;;;;;;;-0.76;96.92;103237.63;4988113;28;20024;-60
2023/01/22 06:30:42;;;;;;;;;;;;;;;-0.74;96.98;103250.63;4989778;28;20400;-59
2023/01/22 06:33:07;;;;;;;;;;;;;;;-0.73;96.88;103236.69;4989342;28;20409;-59
2023/01/22 06:35:32;;;;;;;;;;;;;;;-0.73;96.87;103242.75;4992618;28;19928;-59
2023/01/22 06:37:58;;;;;;;;;;;;;;;-0.72;96.80;103230.56;4992216;28;19961;-59
2023/01/22 06:40:23;;;;;;;;;;;;;;;-0.72;96.90;103239.25;4983961;28;19924;-59
2023/01/22 06:42:48;;;;;;;;;;;;;;;-0.70;96.99;103247.88;4992218;28;19926;-59
2023/01/22 06:45:14;;;;;;;;;;;;;;;-0.70;96.96;103242.66;4993493;28;20008;-59
2023/01/22 06:47:42;;;;;;;;;;;;;;;-0.68;96.88;103242.63;4989228;28;19922;-60
2023/01/22 06:50:08;;;;;;;;;;;;;;;-0.68;96.86;103243.50;4997437;28;20976;-60
2023/01/22 06:52:33;;;;;;;;;;;;;;;-0.67;96.91;103246.94;4990665;28;19929;-60
2023/01/22 06:54:58;;;;;;;;;;;;;;;-0.66;96.90;103248.66;4995649;28;20020;-60
2023/01/22 06:57:23;;;;;;;;;;;;;;;-0.64;96.77;103254.69;4989633;28;20025;-60
2023/01/22 06:59:49;;;;;;;;;;;;;;;-0.64;96.95;103250.34;4996310;28;20009;-59
2023/01/22 07:02:17;;;;;;;;;;;;;;;-0.64;96.98;103244.25;4988255;28;19934;-60
2023/01/22 07:04:42;;;;;;;;;;;;;;;-0.63;96.88;103248.59;4997208;28;20489;-60
2023/01/22 07:07:08;;;;;;;;;;;;;;;-0.62;96.96;103252.91;4989989;28;19920;-60
2023/01/22 07:09:33;;;;;;;;;;;;;;;-0.61;96.84;103254.63;4998177;28;19933;-60
2023/01/22 07:11:59;;;;;;;;;;;;;;;-0.62;96.94;103251.16;4989614;28;19925;-59
2023/01/22 07:14:25;;;;;;;;;;;;;;;-0.60;96.77;103258.94;4986994;28;20017;-60
2023/01/22 07:16:50;;;;;;;;;;;;;;;-0.60;96.76;103251.09;4984717;28;20001;-60
2023/01/22 07:19:15;;;;;;;;;;;;;;;-0.58;96.75;103257.16;4999988;28;19918;-60
2023/01/22 07:21:40;;;;;;;;;;;;;;;-0.55;96.78;103258.84;5000371;28;19913;-60
2023/01/22 07:24:05;;;;;;;;;;;;;;;-0.55;96.91;103251.88;4996269;28;19925;-60
2023/01/22 07:26:31;;;;;;;;;;;;;;;-0.53;96.65;103252.69;4991848;28;20328;-60
2023/01/22 07:28:56;;;;;;;;;;;;;;;-0.51;96.78;103247.44;4983866;28;19921;-60
2023/01/22 07:31:21;;;;;;;;;;;;;;;-0.50;96.81;103255.22;4986476;28;20296;-60
2023/01/22 07:33:46;;;;;;;;;;;;;;;-0.50;96.84;103250.00;4987038;28;19918;-59
2023/01/22 07:36:11;;;;;;;;;;;;;;;-0.48;96.83;103244.75;4988383;28;19957;-59
2023/01/22 07:38:36;;;;;;;;;;;;;;;-0.47;96.85;103247.31;4982416;28;19925;-60
2023/01/22 07:41:03;;;;;;;;;;;;;;;-0.47;96.80;103246.44;4994285;28;19914;-59
2023/01/22 07:43:28;;;;;;;;;;;;;;;-0.46;96.73;103254.25;4986116;28;19920;-60
2023/01/22 07:45:53;;;;;;;;;;;;;;;-0.46;96.73;103262.06;4994241;28;19918;-58
2023/01/22 07:48:19;;;;;;;;;;;;;;;-0.44;96.85;103251.59;4980715;28;20000;-58
2023/01/22 07:50:44;;;;;;;;;;;;;;;-0.44;96.70;103262.88;4983486;28;20369;-59
2023/01/22 07:53:10;;;;;;;;;;;;;;;-0.41;96.67;103264.56;4993753;28;19940;-59
2023/01/22 07:55:36;;;;;;;;;;;;;;;-0.42;96.69;103265.44;4988806;28;19940;-59
2023/01/22 07:58:04;;;;;;;;;;;;;;;-0.41;96.86;103254.97;4985107;28;20030;-58
2023/01/22 08:00:30;;;;;;;;;;;;;;;-0.40;96.74;103264.50;4979365;28;19928;-59
2023/01/22 08:02:55;;;;;;;;;;;;;;;-0.40;96.74;103256.69;4987818;28;19925;-59
2023/01/22 08:05:21;;;;;;;;;;;;;;;-0.39;96.69;103250.56;4988612;28;19921;-59
2023/01/22 08:07:46;;;;;;;;;;;;;;;-0.37;96.62;103261.81;4987121;28;20064;-58
2023/01/22 08:10:13;;;;;;;;;;;;;;;-0.36;96.69;103260.91;4987774;28;19928;-59
2023/01/22 08:12:40;;;;;;;;;;;;;;;-0.35;96.79;103261.78;4989383;28;19921;-59
2023/01/22 08:15:06;;;;;;;;;;;;;;;-0.31;96.83;103266.00;4989296;28;19917;-60
2023/01/22 08:17:31;;;;;;;;;;;;;;;-0.29;96.90;103265.97;4982861;28;19924;-59
2023/01/22 08:19:56;;;;;;;;;;;;;;;-0.26;96.84;103263.31;4981990;28;19976;-60
2023/01/22 08:22:22;;;;;;;;;;;;;;;-0.25;96.84;103263.25;4986096;28;20308;-59
2023/01/22 08:24:47;;;;;;;;;;;;;;;-0.23;96.84;103271.91;4987621;28;19972;-59
2023/01/22 08:27:12;;;;;;;;;;;;;;;-0.22;96.77;103273.63;4995002;28;19919;-59
2023/01/22 08:29:37;;;;;;;;;;;;;;;-0.22;96.65;103270.16;4988365;28;19925;-58
2023/01/22 08:32:03;;;;;;;;;;;;;;;-0.21;96.79;103284.91;4985925;28;20028;-58
2023/01/22 08:34:28;;;;;;;;;;;;;;;-0.22;96.82;103267.53;4977017;28;19918;-60
2023/01/22 08:36:54;;;;;;;;;;;;;;;-0.22;96.50;103275.38;4996700;28;19917;-58
2023/01/22 08:39:19;;;;;;;;;;;;;;;-0.22;96.73;103278.00;4992672;28;20059;-58
2023/01/22 08:41:44;;;;;;;;;;;;;;;-0.21;96.69;103274.47;4986993;28;19925;-60
2023/01/22 08:44:12;;;;;;;;;;;;;;;-0.22;96.58;103280.59;4984111;28;20008;-58
2023/01/22 08:46:39;;;;;;;;;;;;;;;-0.22;96.42;103284.06;4992050;28;19936;-59
2023/01/22 08:49:05;;;;;;;;;;;;;;;-0.21;96.64;103274.47;4988967;28;19924;-58
2023/01/22 08:51:31;;;;;;;;;;;;;;;-0.20;96.40;103278.81;4984435;28;20339;-59
2023/01/22 08:53:56;;;;;;;;;;;;;;;-0.19;96.57;103286.59;4989727;28;19921;-60
2023/01/22 08:56:21;;;;;;;;;;;;;;;-0.19;96.69;103288.34;4992198;28;19914;-59
2023/01/22 08:58:50;;;;;;;;;;;;;;;-0.18;96.51;103282.22;4986316;28;19920;-59
2023/01/22 09:01:16;;;;;;;;;;;;;;;-0.17;96.59;103278.72;4984350;28;20292;-58
2023/01/22 09:03:42;;;;;;;;;;;;;;;-0.17;96.47;103283.94;4991538;28;20452;-59
2023/01/22 09:06:07;;;;;;;;;;;;;;;-0.15;96.57;103279.53;4992245;28;20488;-59
2023/01/22 09:08:32;;;;;;;;;;;;;;;-0.16;96.45;103278.66;4984932;28;19913;-59
2023/01/22 09:10:57;;;;;;;;;;;;;;;-0.14;96.46;103276.88;4989321;28;19930;-59
2023/01/22 09:13:22;;;;;;;;;;;;;;;-0.11;96.39;103281.16;4993879;28;19949;-58
2023/01/22 09:15:48;;;;;;;;;;;;;;;-0.09;96.44;103282.81;4986530;28;20586;-59
2023/01/22 09:18:13;;;;;;;;;;;;;;;-0.06;96.56;103285.34;4989819;28;19918;-59
2023/01/22 09:20:38;;;;;;;;;;;;;;;-0.03;96.59;103285.25;4982340;28;19941;-59
2023/01/22 09:23:03;;;;;;;;;;;;;;;0.00;96.65;103284.34;4992677;28;19922;-59
2023/01/22 09:25:29;;;;;;;;;;;;;;;0.02;96.52;103279.94;4976204;28;20543;-59
2023/01/22 09:27:58;;;;;;;;;;;;;;;0.02;96.62;103277.31;4999192;28;19917;-60
2023/01/22 09:30:25;;;;;;;;;;;;;;;0.03;96.39;103284.25;4984880;28;19922;-59
2023/01/22 09:32:50;;;;;;;;;;;;;;;0.05;96.48;103284.22;4981569;28;19941;-59
2023/01/22 09:35:15;;;;;;;;;;;;;;;0.05;96.37;103290.28;4983834;28;20319;-59
2023/01/22 09:37:40;;;;;;;;;;;;;;;0.05;96.28;103294.66;4980427;28;20008;-59
2023/01/22 09:40:06;;;;;;;;;;;;;;;0.06;96.42;103292.00;4990703;28;19913;-59
2023/01/22 09:42:35;;;;;;;;;;;;;;;0.07;96.40;103290.25;4992617;28;19956;-59
2023/01/22 09:45:06;;;;;;;;;;;;;;;0.09;96.42;103289.31;4983102;28;19956;-59
2023/01/22 09:47:38;;;;;;;;;;;;;;;0.11;96.34;103295.34;4994564;28;19918;-59
2023/01/22 09:50:06;;;;;;;;;;;;;;;0.13;96.41;103303.13;4973542;28;19918;-59
2023/01/22 09:52:33;;;;;;;;;;;;;;;0.15;96.35;103301.34;4982600;28;19957;-59
2023/01/22 09:54:58;;;;;;;;;;;;;;;0.16;96.40;103301.28;4990424;28;19918;-59
2023/01/22 09:57:23;;;;;;;;;;;;;;;0.21;96.29;103311.59;5001821;28;19964;-58
2023/01/22 09:59:50;;;;;;;;;;;;;;;0.24;96.43;103308.91;4990723;28;20537;-59
2023/01/22 10:02:34;;;;;;;;;;;;;;;0.28;96.33;103310.53;4991141;28;20468;-59
2023/01/22 10:05:08;;;;;;;;;;;;;;;0.30;96.45;103312.22;4998370;28;20009;-59
2023/01/22 10:07:35;;;;;;;;;;;;;;;0.32;96.30;103306.09;4984186;28;19926;-59
2023/01/22 10:10:11;;;;;;;;;;;;;;;0.33;96.39;103308.66;4988978;28;19926;-59
2023/01/22 10:12:36;;;;;;;;;;;;;;;0.34;96.34;103310.38;4997727;28;19922;-59
2023/01/22 10:15:01;;;;;;;;;;;;;;;0.35;96.14;103308.63;4994727;28;19937;-59
2023/01/22 10:17:30;;;;;;;;;;;;;;;0.37;96.24;103309.44;4984607;28;19926;-59
2023/01/22 10:19:58;;;;;;;;;;;;;;;0.36;96.18;103308.56;4990669;28;19929;-59
2023/01/22 10:22:24;;;;;;;;;;;;;;;0.36;96.10;103305.97;4997076;28;19917;-57
2023/01/22 10:24:50;;;;;;;;;;;;;;;0.37;95.92;103309.44;4994128;28;20307;-59
2023/01/22 10:27:17;;;;;;;;;;;;;;;0.37;96.03;103309.44;4990590;28;20496;-59
2023/01/22 10:29:44;;;;;;;;;;;;;;;0.36;95.84;103311.19;4982260;28;20279;-59
2023/01/22 10:32:16;;;;;;;;;;;;;;;0.36;95.99;103307.72;4993433;28;20412;-59
2023/01/22 10:34:41;;;;;;;;;;;;;;;0.36;95.82;103305.09;4990621;28;19921;-60
2023/01/22 10:37:09;;;;;;;;;;;;;;;0.36;95.77;103303.34;5002574;28;20377;-59
2023/01/22 10:39:42;;;;;;;;;;;;;;;0.35;95.75;103301.63;4994139;28;19913;-59
2023/01/22 10:42:17;;;;;;;;;;;;;;;0.35;95.87;103303.41;4979905;28;19913;-60
2023/01/22 10:44:43;;;;;;;;;;;;;;;0.35;95.80;103296.41;4986580;28;19918;-59
2023/01/22 10:47:19;;;;;;;;;;;;;;;0.36;95.85;103298.13;4994807;28;20412;-61
2023/01/22 10:49:44;;;;;;;;;;;;;;;0.37;95.83;103301.59;4998237;28;19926;-59
2023/01/22 10:52:23;;;;;;;;;;;;;;;0.38;95.79;103305.91;5002479;28;19925;-59
2023/01/22 10:54:54;;;;;;;;;;;;;;;0.40;95.77;103314.56;4984955;28;19925;-60
2023/01/22 10:57:27;;;;;;;;;;;;;;;0.40;95.86;103314.56;4991236;28;19917;-59
2023/01/22 11:00:11;;;;;;;;;;;;;;;0.40;95.73;103306.72;4993376;28;20286;-60
2023/01/22 11:02:39;;;;;;;;;;;;;;;0.40;95.65;103310.19;4981093;28;20001;-59
2023/01/22 11:05:14;;;;;;;;;;;;;;;0.40;95.74;103298.88;4989446;28;20384;-59
2023/01/22 11:07:40;;;;;;;;;;;;;;;0.41;95.76;103311.91;4985850;28;19918;-60
2023/01/22 11:10:14;;;;;;;;;;;;;;;0.42;95.80;103304.91;4979272;28;19926;-59
2023/01/22 11:12:51;;;;;;;;;;;;;;;0.44;95.78;103300.50;4989606;28;20004;-59
2023/01/22 11:15:16;;;;;;;;;;;;;;;0.43;95.80;103299.66;4991619;28;19920;-59
2023/01/22 11:17:45;;;;;;;;;;;;;;;0.45;95.90;103294.38;4988122;28;19918;-58
2023/01/22 11:20:29;;;;;;;;;;;;;;;0.44;95.77;103288.28;4981011;28;20385;-59
2023/01/22 11:23:05;;;;;;;;;;;;;;;0.47;95.86;103298.66;4991551;28;19953;-58
2023/01/22 11:25:36;;;;;;;;;;;;;;;0.48;95.89;103289.06;4984917;28;19918;-59
2023/01/22 11:28:13;;;;;;;;;;;;;;;0.50;95.79;103282.03;4991314;28;20355;-59
2023/01/22 11:30:39;;;;;;;;;;;;;;;0.53;95.81;103289.78;4984907;28;20308;-60
2023/01/22 11:33:19;;;;;;;;;;;;;;;0.55;95.94;103286.19;4992549;28;19918;-59
2023/01/22 11:35:53;;;;;;;;;;;;;;;0.57;95.90;103279.16;4985833;28;20381;-59
2023/01/22 11:38:37;;;;;;;;;;;;;;;0.60;95.93;103273.03;4983338;28;19914;-60
2023/01/22 11:41:15;;;;;;;;;;;;;;;0.64;95.89;103273.78;4979745;28;20059;-59
2023/01/22 11:43:40;;;;;;;;;;;;;;;0.68;95.95;103262.31;4998416;28;20015;-59
2023/01/22 11:46:08;;;;;;;;;;;;;;;0.71;95.83;103257.00;4981735;28;20049;-60
2023/01/22 11:48:33;;;;;;;;;;;;;;;0.73;96.11;103256.03;4986745;28;19969;-60
2023/01/22 11:51:02;;;;;;;;;;;;;;;0.77;96.20;103257.66;4990063;28;20389;-59
2023/01/22 11:53:41;;;;;;;;;;;;;;;0.81;96.12;103269.72;4997690;28;19920;-59
2023/01/22 11:56:25;;;;;;;;;;;;;;;0.84;96.09;103253.06;4987874;28;19962;-59
2023/01/22 11:59:08;;;;;;;;;;;;;;;0.88;96.17;103260.81;4999109;28;19917;-59
2023/01/22 12:01:52;;;;;;;;;;;;;;;0.91;96.19;103245.00;4987069;28;19925;-60
2023/01/22 12:04:18;;;;;;;;;;;;;;;0.96;95.96;103246.63;5002111;28;20377;-60
2023/01/22 12:07:02;;;;;;;;;;;;;;;1.01;96.24;103242.94;4991007;28;19949;-58
2023/01/22 12:09:35;;;;;;;;;;;;;;;1.08;96.28;103246.19;4979032;28;19917;-60
2023/01/22 12:12:19;;;;;;;;;;;;;;;1.14;96.03;103240.75;4982582;28;20558;-57
2023/01/22 12:14:53;;;;;;;;;;;;;;;1.19;96.16;103244.97;4992420;28;19980;-58
2023/01/22 12:17:33;;;;;;;;;;;;;;;1.24;96.02;103237.81;4990162;28;19940;-59
2023/01/22 12:20:08;;;;;;;;;;;;;;;1.32;96.01;103242.78;4995304;28;19964;-59
2023/01/22 12:22:33;;;;;;;;;;;;;;;1.37;96.28;103243.47;5005386;28;20280;-58
2023/01/22 12:25:09;;;;;;;;;;;;;;;1.40;95.76;103238.13;4981609;28;19979;-56
2023/01/22 12:27:37;;;;;;;;;;;;;;;1.41;95.86;103245.06;4993257;28;19918;-58
2023/01/22 12:30:12;;;;;;;;;;;;;;;1.42;95.90;103231.06;4986212;28;19956;-59
2023/01/22 12:32:38;;;;;;;;;;;;;;;1.43;95.81;103245.88;4983779;28;19918;-59
2023/01/22 12:35:05;;;;;;;;;;;;;;;1.43;95.63;103231.94;4983342;28;20485;-58
2023/01/22 12:37:37;;;;;;;;;;;;;;;1.40;95.45;103242.50;4986649;28;19922;-58
2023/01/22 12:40:18;;;;;;;;;;;;;;;1.36;95.07;103236.53;4984002;28;19933;-59
2023/01/22 12:42:49;;;;;;;;;;;;;;;1.33;94.83;103239.25;4979668;28;19926;-58
2023/01/22 12:45:17;;;;;;;;;;;;;;;1.30;94.74;103244.59;4985589;28;19944;-58
2023/01/22 12:47:53;;;;;;;;;;;;;;;1.29;94.78;103245.50;4980604;28;20012;-59